createdAt,value
2023-03-15T00:01:23.194Z,82.10
2023-03-15T00:02:54.790Z,81.70
2023-03-15T00:04:27.732Z,82.77
2023-03-15T00:06:01.066Z,82.68
2023-03-15T00:07:32.927Z,82.01
2023-03-15T00:09:04.799Z,81.92
2023-03-15T00:10:36.394Z,82.47
2023-03-15T00:12:08.214Z,82.79
2023-03-15T00:13:39.887Z,82.79
2023-03-15T00:15:13.903Z,82.58
2023-03-15T00:16:45.679Z,82.32
2023-03-15T00:18:18.641Z,82.32
2023-03-15T00:19:50.336Z,81.76
2023-03-15T00:21:22.613Z,82.39
2023-03-15T00:22:54.255Z,81.96
2023-03-15T00:24:25.903Z,82.61
2023-03-15T00:25:57.834Z,82.51
2023-03-15T00:27:29.581Z,80.50
2023-03-15T00:29:01.203Z,80.79
2023-03-15T00:30:33.330Z,80.52
2023-03-15T00:32:05.069Z,81.73
2023-03-15T00:33:36.739Z,81.81
2023-03-15T00:35:13.138Z,81.82
2023-03-15T00:36:45.797Z,80.73
2023-03-15T00:38:17.704Z,80.72
2023-03-15T00:39:49.810Z,80.55
2023-03-15T00:41:22.388Z,80.26
2023-03-15T00:42:54.097Z,81.45
2023-03-15T00:44:26.556Z,80.92
2023-03-15T00:45:58.800Z,80.58
2023-03-15T00:47:30.894Z,80.77
2023-03-15T00:49:02.634Z,81.06
2023-03-15T00:50:34.290Z,81.28
2023-03-15T00:52:06.841Z,80.63
2023-03-15T00:53:41.440Z,80.98
2023-03-15T00:55:16.280Z,81.59
2023-03-15T00:56:48.124Z,80.59
2023-03-15T00:58:21.722Z,80.44
2023-03-15T00:59:55.160Z,79.64
2023-03-15T01:01:29.718Z,79.66
2023-03-15T01:03:01.391Z,79.82
2023-03-15T01:04:33.089Z,80.70
2023-03-15T01:06:14.100Z,80.63
2023-03-15T01:07:45.741Z,81.24
2023-03-15T01:09:17.366Z,80.94
2023-03-15T01:10:50.510Z,80.55
2023-03-15T01:12:22.082Z,80.78
2023-03-15T01:13:56.103Z,81.12
2023-03-15T01:15:27.688Z,81.49
2023-03-15T01:16:59.325Z,81.38
2023-03-15T01:18:31.192Z,82.35
2023-03-15T01:20:05.513Z,82.42
2023-03-15T01:21:37.107Z,82.74
2023-03-15T01:23:08.792Z,82.97
2023-03-15T01:24:40.380Z,82.66
2023-03-15T01:26:14.652Z,82.45
2023-03-15T01:27:46.250Z,82.34
2023-03-15T01:29:18.014Z,81.67
2023-03-15T01:30:51.188Z,80.37
2023-03-15T01:32:22.887Z,79.94
2023-03-15T01:33:55.070Z,80.90
2023-03-15T01:35:26.666Z,81.77
2023-03-15T01:36:58.509Z,81.32
2023-03-15T01:38:36.249Z,81.00
2023-03-15T01:40:13.857Z,81.17
2023-03-15T01:41:48.431Z,82.34
2023-03-15T01:43:26.790Z,83.18
2023-03-15T01:45:00.241Z,83.42
2023-03-15T01:46:34.707Z,82.72
2023-03-15T01:48:22.854Z,83.63
2023-03-15T01:50:04.094Z,83.46
2023-03-15T01:51:51.766Z,82.87
2023-03-15T01:53:26.408Z,83.95
2023-03-15T01:55:04.280Z,83.82
2023-03-15T01:56:41.782Z,83.69
2023-03-15T01:58:14.033Z,84.48
2023-03-15T01:59:58.457Z,84.50
2023-03-15T02:01:32.538Z,84.46
2023-03-15T02:03:14.524Z,84.71
2023-03-15T02:04:59.435Z,84.91
2023-03-15T02:06:34.991Z,84.94
2023-03-15T02:08:09.134Z,85.54
2023-03-15T02:09:49.631Z,84.21
2023-03-15T02:11:24.139Z,84.38
2023-03-15T02:12:56.218Z,84.86
2023-03-15T02:14:29.146Z,84.91
2023-03-15T02:16:01.837Z,85.56
2023-03-15T02:17:43.665Z,85.57
2023-03-15T02:19:47.874Z,84.65
2023-03-15T02:21:38.225Z,85.72
2023-03-15T02:23:13.422Z,85.21
2023-03-15T02:24:51.297Z,85.52
2023-03-15T02:26:48.691Z,86.70
2023-03-15T02:28:20.842Z,86.42
2023-03-15T02:29:52.914Z,86.46
2023-03-15T02:31:26.944Z,86.15
2023-03-15T02:33:03.476Z,85.50
2023-03-15T02:34:35.118Z,85.31
2023-03-15T02:36:16.830Z,85.92
2023-03-15T02:37:48.399Z,86.35
2023-03-15T02:39:22.071Z,86.65
2023-03-15T02:40:53.675Z,85.98
2023-03-15T02:42:26.505Z,86.62
2023-03-15T02:44:11.433Z,86.74
2023-03-15T02:45:43.530Z,86.62
2023-03-15T02:47:22.773Z,86.55
2023-03-15T02:48:54.869Z,86.97
2023-03-15T02:50:26.539Z,87.38
2023-03-15T02:51:58.350Z,86.75
2023-03-15T02:53:30.983Z,86.66
2023-03-15T02:55:02.735Z,86.40
2023-03-15T02:56:34.392Z,86.83
2023-03-15T02:58:06.923Z,87.52
2023-03-15T02:59:38.655Z,87.55
2023-03-15T03:01:13.178Z,87.91
2023-03-15T03:02:46.802Z,88.74
2023-03-15T03:04:18.673Z,88.76
2023-03-15T03:05:50.255Z,88.96
2023-03-15T03:07:21.913Z,88.62
2023-03-15T03:08:58.517Z,88.54
2023-03-15T03:10:30.470Z,88.14
2023-03-15T03:12:03.524Z,88.99
2023-03-15T03:13:37.136Z,87.91
2023-03-15T03:15:11.320Z,89.01
2023-03-15T03:16:43.025Z,88.65
2023-03-15T03:18:14.805Z,87.93
2023-03-15T03:19:46.629Z,89.26
2023-03-15T03:21:20.384Z,89.24
2023-03-15T03:22:51.989Z,88.69
2023-03-15T03:24:25.776Z,88.40
2023-03-15T03:25:59.040Z,87.82
2023-03-15T03:27:30.704Z,87.03
2023-03-15T03:29:07.856Z,87.07
2023-03-15T03:30:39.613Z,88.20
2023-03-15T03:32:11.520Z,88.04
2023-03-15T03:33:43.256Z,88.21
2023-03-15T03:35:16.241Z,88.68
2023-03-15T03:36:51.016Z,87.84
2023-03-15T03:38:30.777Z,87.75
2023-03-15T03:40:08.254Z,87.90
2023-03-15T03:41:40.544Z,87.47
2023-03-15T03:43:12.552Z,87.94
2023-03-15T03:44:44.255Z,87.67
2023-03-15T03:46:16.252Z,87.65
2023-03-15T03:47:52.871Z,88.31
2023-03-15T03:49:24.617Z,87.70
2023-03-15T03:50:56.199Z,88.11
2023-03-15T03:52:27.907Z,88.58
2023-03-15T03:54:06.914Z,88.58
2023-03-15T03:55:38.554Z,88.44
2023-03-15T03:57:10.961Z,88.34
2023-03-15T03:58:43.258Z,88.44
2023-03-15T04:00:21.592Z,89.44
2023-03-15T04:01:54.103Z,90.03
2023-03-15T04:03:28.585Z,90.05
2023-03-15T04:05:11.906Z,89.77
2023-03-15T04:06:45.774Z,90.36
2023-03-15T04:08:17.785Z,89.95
2023-03-15T04:09:49.357Z,90.47
2023-03-15T04:11:22.319Z,90.02
2023-03-15T04:12:59.337Z,90.31
2023-03-15T04:14:30.913Z,90.83
2023-03-15T04:16:03.976Z,90.46
2023-03-15T04:17:41.970Z,90.72
2023-03-15T04:19:13.592Z,90.79
2023-03-15T04:20:47.601Z,90.63
2023-03-15T04:22:21.544Z,89.87
2023-03-15T04:24:28.353Z,90.28
2023-03-15T04:26:08.672Z,90.47
2023-03-15T04:27:58.983Z,90.13
2023-03-15T04:30:09.681Z,90.83
2023-03-15T04:31:53.785Z,90.13
2023-03-15T04:33:35.682Z,90.24
2023-03-15T04:35:39.956Z,91.14
2023-03-15T04:37:37.852Z,90.86
2023-03-15T04:39:22.897Z,91.16
2023-03-15T04:41:10.850Z,91.71
2023-03-15T04:42:56.014Z,91.67
2023-03-15T04:44:37.600Z,90.50
2023-03-15T04:46:27.969Z,90.29
2023-03-15T04:48:11.968Z,90.86
2023-03-15T04:49:56.963Z,90.25
2023-03-15T04:51:47.457Z,90.61
2023-03-15T04:53:25.367Z,91.39
2023-03-15T04:55:07.905Z,91.33
2023-03-15T04:56:58.011Z,91.85
2023-03-15T04:58:48.173Z,91.19
2023-03-15T05:00:34.221Z,92.01
2023-03-15T05:02:26.225Z,91.64
2023-03-15T05:04:27.083Z,92.06
2023-03-15T05:06:09.812Z,91.32
2023-03-15T05:08:08.130Z,91.20
2023-03-15T05:09:58.053Z,91.24
2023-03-15T05:11:46.450Z,91.47
2023-03-15T05:13:36.586Z,91.89
2023-03-15T05:15:19.861Z,91.06
2023-03-15T05:17:15.414Z,91.66
2023-03-15T05:18:49.641Z,91.80
2023-03-15T05:20:56.597Z,91.38
2023-03-15T05:22:45.575Z,91.51
2023-03-15T05:24:30.521Z,91.80
2023-03-15T05:26:31.425Z,91.78
2023-03-15T05:28:18.388Z,90.94
2023-03-15T05:30:09.152Z,90.68
2023-03-15T05:32:08.996Z,91.15
2023-03-15T05:33:58.751Z,91.53
2023-03-15T05:36:05.819Z,92.00
2023-03-15T05:37:56.246Z,91.54
2023-03-15T05:39:44.804Z,92.37
2023-03-15T05:41:38.041Z,91.44
2023-03-15T05:43:28.302Z,91.33
2023-03-15T05:45:15.460Z,92.13
2023-03-15T05:47:01.631Z,91.66
2023-03-15T05:48:51.694Z,91.69
2023-03-15T05:50:55.518Z,92.14
2023-03-15T05:52:36.433Z,91.13
2023-03-15T05:54:26.858Z,90.22
2023-03-15T05:56:08.238Z,91.12
2023-03-15T05:57:55.558Z,90.60
2023-03-15T05:59:45.450Z,91.27
2023-03-15T06:01:39.897Z,90.84
2023-03-15T06:03:22.974Z,90.93
2023-03-15T06:05:00.655Z,91.12
2023-03-15T06:06:33.789Z,91.56
2023-03-15T06:08:07.310Z,90.00
2023-03-15T06:09:41.218Z,89.85
2023-03-15T06:11:12.940Z,89.79
2023-03-15T06:12:45.090Z,90.03
2023-03-15T06:14:16.912Z,89.58
2023-03-15T06:15:56.828Z,89.72
2023-03-15T06:17:28.817Z,90.58
2023-03-15T06:19:00.496Z,90.37
2023-03-15T06:20:32.554Z,90.59
2023-03-15T06:22:10.218Z,89.60
2023-03-15T06:23:48.903Z,89.50
2023-03-15T06:25:20.476Z,90.21
2023-03-15T06:26:54.760Z,90.50
2023-03-15T06:28:26.774Z,90.45
2023-03-15T06:30:01.369Z,90.02
2023-03-15T06:31:33.865Z,89.96
2023-03-15T06:33:11.891Z,89.67
2023-03-15T06:34:43.786Z,89.60
2023-03-15T06:36:17.596Z,89.21
2023-03-15T06:37:49.302Z,88.62
2023-03-15T06:39:21.184Z,89.61
2023-03-15T06:40:52.966Z,88.93
2023-03-15T06:42:24.598Z,88.61
2023-03-15T06:43:56.221Z,88.72
2023-03-15T06:45:28.016Z,88.48
2023-03-15T06:47:02.871Z,88.98
2023-03-15T06:48:35.016Z,88.53
2023-03-15T06:50:07.465Z,87.87
2023-03-15T06:51:39.335Z,87.39
2023-03-15T06:53:11.240Z,86.19
2023-03-15T06:54:44.311Z,87.01
2023-03-15T06:56:16.113Z,86.50
2023-03-15T06:57:47.765Z,86.39
2023-03-15T06:59:19.342Z,84.90
2023-03-15T07:00:51.090Z,84.58
2023-03-15T07:02:23.044Z,83.63
2023-03-15T07:03:54.664Z,83.25
2023-03-15T07:05:26.436Z,81.51
2023-03-15T07:06:58.040Z,81.11
2023-03-15T07:08:29.731Z,79.92
2023-03-15T07:10:01.353Z,80.40
2023-03-15T07:11:33.427Z,81.60
2023-03-15T07:13:06.860Z,80.53
2023-03-15T07:14:38.506Z,79.68
2023-03-15T07:16:10.260Z,79.66
2023-03-15T07:17:42.099Z,80.50
2023-03-15T07:19:13.748Z,79.88
2023-03-15T07:20:45.357Z,78.83
2023-03-15T07:22:16.950Z,78.80
2023-03-15T07:23:48.560Z,76.97
2023-03-15T07:25:23.999Z,75.69
2023-03-15T07:26:56.660Z,76.75
2023-03-15T07:28:28.641Z,66.98
2023-03-15T07:30:01.089Z,56.53
2023-03-15T07:31:32.657Z,59.04
2023-03-15T07:33:04.438Z,60.69
2023-03-15T07:34:36.109Z,60.06
2023-03-15T07:36:08.440Z,62.85
2023-03-15T07:37:44.313Z,62.71
2023-03-15T07:39:16.328Z,65.99
2023-03-15T07:40:47.947Z,59.47
2023-03-15T07:42:19.618Z,49.80
2023-03-15T07:43:58.389Z,39.74
2023-03-15T07:45:30.314Z,37.23
2023-03-15T07:47:01.937Z,32.74
2023-03-15T07:48:33.670Z,29.98
2023-03-15T07:50:06.600Z,29.49
2023-03-15T07:51:38.232Z,26.76
2023-03-15T07:53:09.870Z,26.52
2023-03-15T07:54:41.470Z,27.32
2023-03-15T07:56:13.125Z,24.12
2023-03-15T07:57:44.728Z,24.18
2023-03-15T07:59:16.304Z,24.40
2023-03-15T08:00:48.251Z,24.90
2023-03-15T08:02:20.062Z,23.29
2023-03-15T08:03:51.904Z,24.05
2023-03-15T08:05:24.434Z,24.16
2023-03-15T08:06:56.580Z,24.33
2023-03-15T08:08:28.392Z,22.92
2023-03-15T08:10:00.128Z,22.77
2023-03-15T08:11:32.973Z,21.32
2023-03-15T08:13:04.673Z,20.78
2023-03-15T08:14:37.232Z,23.28
2023-03-15T08:16:08.958Z,20.08
2023-03-15T08:17:41.609Z,20.27
2023-03-15T08:19:13.241Z,20.65
2023-03-15T08:20:44.859Z,19.91
2023-03-15T08:22:16.562Z,20.03
2023-03-15T08:23:48.201Z,19.52
2023-03-15T08:25:23.489Z,19.99
2023-03-15T08:26:55.096Z,20.86
2023-03-15T08:28:26.724Z,18.37
2023-03-15T08:29:58.433Z,17.78
2023-03-15T08:31:31.123Z,16.36
2023-03-15T08:33:03.762Z,18.39
2023-03-15T08:34:35.630Z,16.50
2023-03-15T08:36:07.464Z,17.21
2023-03-15T08:37:39.730Z,16.30
2023-03-15T08:39:11.535Z,17.10
2023-03-15T08:40:43.197Z,16.23
2023-03-15T08:42:14.971Z,13.72
2023-03-15T08:43:46.638Z,13.99
2023-03-15T08:45:19.060Z,15.47
2023-03-15T08:46:50.880Z,21.30
2023-03-15T08:48:22.653Z,18.25
2023-03-15T08:49:54.322Z,23.82
2023-03-15T08:51:26.619Z,28.30
2023-03-15T08:52:58.374Z,23.62
2023-03-15T08:54:30.038Z,17.72
2023-03-15T08:56:01.965Z,16.94
2023-03-15T08:57:33.647Z,16.60
2023-03-15T08:59:05.643Z,18.67
2023-03-15T09:00:37.747Z,17.32
2023-03-15T09:02:11.960Z,20.28
2023-03-15T09:03:44.137Z,21.14
2023-03-15T09:05:17.019Z,19.47
2023-03-15T09:06:48.728Z,20.78
2023-03-15T09:08:21.507Z,21.72
2023-03-15T09:09:54.454Z,18.50
2023-03-15T09:11:26.111Z,18.47
2023-03-15T09:12:57.884Z,18.92
2023-03-15T09:14:29.660Z,20.00
2023-03-15T09:16:01.326Z,19.68
2023-03-15T09:17:33.059Z,21.43
2023-03-15T09:19:05.200Z,20.85
2023-03-15T09:20:39.612Z,22.86
2023-03-15T09:22:17.117Z,29.46
2023-03-15T09:23:55.366Z,31.36
2023-03-15T09:25:27.557Z,32.05
2023-03-15T09:26:59.255Z,33.00
2023-03-15T09:28:30.948Z,33.71
2023-03-15T09:30:03.712Z,33.34
2023-03-15T09:31:35.703Z,28.05
2023-03-15T09:33:07.858Z,31.04
2023-03-15T09:34:42.279Z,35.00
2023-03-15T09:36:14.036Z,35.94
2023-03-15T09:37:47.187Z,37.10
2023-03-15T09:39:22.445Z,38.42
2023-03-15T09:41:00.290Z,40.75
2023-03-15T09:42:48.826Z,41.28
2023-03-15T09:44:26.160Z,42.10
2023-03-15T09:46:03.919Z,41.13
2023-03-15T09:47:48.168Z,40.92
2023-03-15T09:49:47.083Z,41.68
2023-03-15T09:51:36.738Z,41.71
2023-03-15T09:53:18.998Z,40.96
2023-03-15T09:54:54.653Z,39.80
2023-03-15T09:56:45.717Z,38.82
2023-03-15T09:58:23.905Z,38.34
2023-03-15T09:59:56.825Z,41.03
2023-03-15T10:01:35.087Z,41.94
2023-03-15T10:03:33.185Z,40.17
2023-03-15T10:05:13.799Z,40.86
2023-03-15T10:06:52.824Z,40.41
2023-03-15T10:08:25.057Z,41.46
2023-03-15T10:09:59.025Z,41.61
2023-03-15T10:11:47.294Z,41.62
2023-03-15T10:13:30.412Z,42.38
2023-03-15T10:15:21.819Z,42.11
2023-03-15T10:16:53.382Z,40.68
2023-03-15T10:19:02.492Z,40.37
2023-03-15T10:20:41.456Z,39.42
2023-03-15T10:22:13.010Z,36.15
2023-03-15T10:23:54.103Z,37.18
2023-03-15T10:25:30.846Z,33.82
2023-03-15T10:27:14.285Z,26.19
2023-03-15T10:28:46.211Z,26.33
2023-03-15T10:30:21.580Z,24.63
2023-03-15T10:31:54.824Z,22.67
2023-03-15T10:33:29.603Z,19.62
2023-03-15T10:35:01.728Z,18.92
2023-03-15T10:36:33.519Z,18.42
2023-03-15T10:38:20.935Z,16.88
2023-03-15T10:39:59.000Z,16.85
2023-03-15T10:41:37.491Z,15.86
2023-03-15T10:43:16.991Z,15.10
2023-03-15T10:44:48.649Z,17.16
2023-03-15T10:46:24.438Z,16.63
2023-03-15T10:48:00.735Z,17.79
2023-03-15T10:49:41.371Z,17.35
2023-03-15T10:51:18.602Z,16.68
2023-03-15T10:52:51.508Z,16.39
2023-03-15T10:54:25.019Z,17.43
2023-03-15T10:56:04.031Z,16.10
2023-03-15T10:57:39.789Z,16.33
2023-03-15T10:59:18.415Z,15.38
2023-03-15T11:00:52.660Z,15.96
2023-03-15T11:02:25.709Z,15.63
2023-03-15T11:04:33.768Z,17.15
2023-03-15T11:06:21.523Z,17.32
2023-03-15T11:07:58.787Z,17.09
2023-03-15T11:09:45.704Z,17.81
2023-03-15T11:11:18.812Z,17.76
2023-03-15T11:12:50.499Z,21.27
2023-03-15T11:14:22.098Z,21.77
2023-03-15T11:16:04.566Z,23.54
2023-03-15T11:17:42.845Z,26.04
2023-03-15T11:19:21.134Z,26.82
2023-03-15T11:20:55.108Z,26.17
2023-03-15T11:22:27.079Z,27.22
2023-03-15T11:24:01.058Z,27.72
2023-03-15T11:25:34.258Z,28.65
2023-03-15T11:27:17.772Z,29.45
2023-03-15T11:28:59.703Z,27.74
2023-03-15T11:30:32.288Z,28.70
2023-03-15T11:32:13.414Z,29.39
2023-03-15T11:34:03.387Z,29.64
2023-03-15T11:35:49.715Z,30.73
2023-03-15T11:37:27.189Z,31.54
2023-03-15T11:39:03.098Z,31.38
2023-03-15T11:40:42.954Z,32.87
2023-03-15T11:42:38.889Z,33.37
2023-03-15T11:44:33.441Z,31.60
2023-03-15T11:46:10.932Z,32.16
2023-03-15T11:48:01.807Z,32.73
2023-03-15T11:49:40.661Z,33.66
2023-03-15T11:51:13.894Z,33.39
2023-03-15T11:52:49.873Z,33.96
2023-03-15T11:54:22.760Z,33.23
2023-03-15T11:55:54.816Z,34.78
2023-03-15T11:57:29.449Z,34.15
2023-03-15T11:59:02.110Z,33.97
2023-03-15T12:00:36.630Z,34.41
2023-03-15T12:02:11.280Z,34.40
2023-03-15T12:03:44.782Z,34.83
2023-03-15T12:05:44.466Z,34.08
2023-03-15T12:07:18.991Z,34.37
2023-03-15T12:08:54.874Z,35.41
2023-03-15T12:10:33.702Z,34.47
2023-03-15T12:12:25.381Z,34.54
2023-03-15T12:13:56.986Z,35.74
2023-03-15T12:15:28.561Z,36.47
2023-03-15T12:17:22.096Z,36.70
2023-03-15T12:18:58.636Z,38.77
2023-03-15T12:20:36.694Z,37.40
2023-03-15T12:22:17.432Z,36.33
2023-03-15T12:24:01.655Z,36.24
2023-03-15T12:25:55.167Z,35.58
2023-03-15T12:27:28.689Z,36.11
2023-03-15T12:29:00.743Z,36.66
2023-03-15T12:30:38.453Z,37.76
2023-03-15T12:32:18.027Z,38.45
2023-03-15T12:33:58.379Z,37.63
2023-03-15T12:35:39.889Z,37.34
2023-03-15T12:37:19.942Z,38.43
2023-03-15T12:39:00.889Z,38.91
2023-03-15T12:40:47.516Z,39.42
2023-03-15T12:42:31.477Z,39.02
2023-03-15T12:44:22.332Z,40.56
2023-03-15T12:45:54.157Z,40.16
2023-03-15T12:47:25.812Z,40.17
2023-03-15T12:49:33.093Z,40.18
2023-03-15T12:51:06.370Z,40.91
2023-03-15T12:52:42.162Z,40.80
2023-03-15T12:54:15.783Z,41.22
2023-03-15T12:55:50.062Z,41.07
2023-03-15T12:57:30.311Z,39.53
2023-03-15T12:59:31.541Z,39.13
2023-03-15T13:01:06.298Z,39.76
2023-03-15T13:02:46.213Z,39.53
2023-03-15T13:04:18.453Z,40.26
2023-03-15T13:06:16.044Z,41.46
2023-03-15T13:08:06.201Z,43.63
2023-03-15T13:09:56.375Z,43.87
2023-03-15T13:11:39.602Z,44.57
2023-03-15T13:13:19.395Z,42.23
2023-03-15T13:14:59.725Z,43.58
2023-03-15T13:16:46.381Z,43.13
2023-03-15T13:18:22.844Z,42.52
2023-03-15T13:20:38.775Z,41.45
2023-03-15T13:22:54.880Z,41.68
2023-03-15T13:24:42.939Z,39.76
2023-03-15T13:26:40.684Z,39.70
2023-03-15T13:28:22.505Z,39.48
2023-03-15T13:29:54.703Z,39.47
2023-03-15T13:31:31.419Z,40.11
2023-03-15T13:33:25.074Z,39.87
2023-03-15T13:34:57.392Z,39.32
2023-03-15T13:36:47.140Z,39.47
2023-03-15T13:38:28.033Z,39.09
2023-03-15T13:40:02.376Z,38.37
2023-03-15T13:41:39.298Z,38.69
2023-03-15T13:43:12.189Z,40.49
2023-03-15T13:44:44.093Z,39.64
2023-03-15T13:46:23.278Z,39.46
2023-03-15T13:47:55.247Z,39.69
2023-03-15T13:49:32.802Z,39.21
2023-03-15T13:51:06.244Z,39.83
2023-03-15T13:52:38.151Z,40.02
2023-03-15T13:54:20.486Z,39.16
2023-03-15T13:55:54.583Z,39.15
2023-03-15T13:57:26.907Z,39.19
2023-03-15T13:58:59.108Z,39.36
2023-03-15T14:00:34.109Z,39.40
2023-03-15T14:02:06.437Z,39.79
2023-03-15T14:03:41.675Z,40.83
2023-03-15T14:05:27.497Z,40.66
2023-03-15T14:07:32.961Z,40.89
2023-03-15T14:09:11.680Z,41.49
2023-03-15T14:10:43.255Z,42.53
2023-03-15T14:12:22.868Z,42.33
2023-03-15T14:13:58.444Z,42.40
2023-03-15T14:15:30.375Z,42.72
2023-03-15T14:17:17.662Z,43.36
2023-03-15T14:18:51.415Z,44.28
2023-03-15T14:20:29.662Z,44.30
2023-03-15T14:22:05.313Z,43.15
2023-03-15T14:23:42.051Z,43.86
2023-03-15T14:25:22.069Z,43.03
2023-03-15T14:26:57.466Z,44.55
2023-03-15T14:28:31.873Z,45.17
2023-03-15T14:30:04.515Z,43.84
2023-03-15T14:31:46.576Z,45.03
2023-03-15T14:33:38.824Z,44.23
2023-03-15T14:35:28.859Z,43.58
2023-03-15T14:37:04.455Z,44.76
2023-03-15T14:38:39.049Z,43.86
2023-03-15T14:40:21.421Z,44.62
2023-03-15T14:41:53.249Z,44.60
2023-03-15T14:43:24.910Z,44.89
2023-03-15T14:44:56.512Z,45.89
2023-03-15T14:46:28.525Z,46.80
2023-03-15T14:48:05.852Z,46.12
2023-03-15T14:49:37.590Z,46.34
2023-03-15T14:51:18.404Z,46.90
2023-03-15T14:52:51.388Z,47.36
2023-03-15T14:54:23.321Z,46.14
2023-03-15T14:55:55.076Z,46.96
2023-03-15T14:57:26.673Z,46.34
2023-03-15T14:58:58.278Z,47.39
2023-03-15T15:00:31.267Z,46.83
2023-03-15T15:02:03.301Z,45.72
2023-03-15T15:03:41.242Z,46.33
2023-03-15T15:05:30.929Z,46.37
2023-03-15T15:07:03.196Z,46.34
2023-03-15T15:08:39.853Z,47.29
2023-03-15T15:10:11.809Z,46.57
2023-03-15T15:11:43.465Z,46.88
2023-03-15T15:13:21.070Z,46.71
2023-03-15T15:14:52.808Z,46.90
2023-03-15T15:16:24.456Z,46.93
2023-03-15T15:17:56.235Z,46.75
2023-03-15T15:19:27.898Z,47.23
2023-03-15T15:21:12.041Z,47.70
2023-03-15T15:22:43.759Z,48.55
2023-03-15T15:24:18.505Z,49.49
2023-03-15T15:25:53.445Z,50.34
2023-03-15T15:27:26.028Z,50.58
2023-03-15T15:28:58.175Z,50.41
2023-03-15T15:30:31.336Z,50.93
2023-03-15T15:32:02.971Z,50.84
2023-03-15T15:33:34.941Z,50.19
2023-03-15T15:35:08.531Z,50.75
2023-03-15T15:36:43.882Z,50.70
2023-03-15T15:38:15.647Z,51.94
2023-03-15T15:39:47.744Z,52.00
2023-03-15T15:41:24.352Z,53.24
2023-03-15T15:42:56.609Z,53.83
2023-03-15T15:44:28.218Z,54.57
2023-03-15T15:45:59.959Z,54.56
2023-03-15T15:47:31.664Z,54.97
2023-03-15T15:49:04.183Z,56.16
2023-03-15T15:50:36.652Z,55.38
2023-03-15T15:52:14.594Z,56.38
2023-03-15T15:53:46.470Z,56.73
2023-03-15T15:55:21.381Z,57.43
2023-03-15T15:57:00.561Z,56.94
2023-03-15T15:58:32.372Z,58.15
2023-03-15T16:00:08.567Z,57.83
2023-03-15T16:01:58.859Z,58.09
2023-03-15T16:03:30.965Z,58.16
2023-03-15T16:05:02.623Z,59.60
2023-03-15T16:06:35.233Z,59.48
2023-03-15T16:08:07.823Z,59.20
2023-03-15T16:09:40.443Z,59.14
2023-03-15T16:11:15.577Z,60.17
2023-03-15T16:12:48.591Z,59.83
2023-03-15T16:14:20.858Z,60.80
2023-03-15T16:15:52.836Z,61.17
2023-03-15T16:17:25.256Z,60.91
2023-03-15T16:18:57.209Z,61.53
2023-03-15T16:20:29.734Z,60.89
2023-03-15T16:22:01.558Z,61.63
2023-03-15T16:23:34.039Z,61.31
2023-03-15T16:25:23.886Z,62.64
2023-03-15T16:27:02.603Z,61.90
2023-03-15T16:28:34.316Z,61.90
2023-03-15T16:30:07.337Z,63.23
2023-03-15T16:31:39.085Z,63.70
2023-03-15T16:33:16.394Z,63.47
2023-03-15T16:34:49.345Z,63.76
2023-03-15T16:36:22.521Z,62.86
2023-03-15T16:37:56.617Z,63.87
2023-03-15T16:39:30.269Z,65.24
2023-03-15T16:41:02.034Z,65.11
2023-03-15T16:42:33.788Z,65.47
2023-03-15T16:44:12.890Z,65.11
2023-03-15T16:45:45.063Z,65.56
2023-03-15T16:47:17.117Z,65.03
2023-03-15T16:48:48.787Z,66.67
2023-03-15T16:50:20.713Z,66.33
2023-03-15T16:51:53.640Z,66.77
2023-03-15T16:53:25.353Z,68.07
2023-03-15T16:54:57.173Z,67.20
2023-03-15T16:56:33.901Z,68.34
2023-03-15T16:58:15.913Z,68.16
2023-03-15T16:59:48.050Z,68.63
2023-03-15T17:01:20.002Z,68.32
2023-03-15T17:02:52.788Z,69.06
2023-03-15T17:04:24.524Z,69.08
2023-03-15T17:05:56.965Z,69.59
2023-03-15T17:07:33.210Z,70.49
2023-03-15T17:09:11.283Z,69.12
2023-03-15T17:10:43.206Z,69.62
2023-03-15T17:12:27.209Z,69.63
2023-03-15T17:13:59.582Z,69.21
2023-03-15T17:15:31.445Z,70.63
2023-03-15T17:17:03.095Z,70.07
2023-03-15T17:18:34.799Z,70.97
2023-03-15T17:20:10.443Z,71.53
2023-03-15T17:21:44.194Z,71.57
2023-03-15T17:23:16.493Z,72.23
2023-03-15T17:24:49.209Z,72.59
2023-03-15T17:26:23.590Z,73.00
2023-03-15T17:27:56.003Z,73.60
2023-03-15T17:29:27.945Z,72.41
2023-03-15T17:31:20.383Z,72.16
2023-03-15T17:32:53.940Z,72.88
2023-03-15T17:34:26.778Z,72.38
2023-03-15T17:35:58.600Z,72.07
2023-03-15T17:37:34.165Z,72.82
2023-03-15T17:39:07.299Z,72.56
2023-03-15T17:40:39.072Z,72.47
2023-03-15T17:42:14.992Z,72.71
2023-03-15T17:43:48.063Z,72.98
2023-03-15T17:45:31.582Z,72.82
2023-03-15T17:47:05.930Z,73.61
2023-03-15T17:48:38.955Z,73.89
2023-03-15T17:50:11.491Z,74.01
2023-03-15T17:51:43.316Z,73.66
2023-03-15T17:53:17.157Z,73.22
2023-03-15T17:54:49.037Z,73.00
2023-03-15T17:56:22.913Z,72.85
2023-03-15T17:57:55.789Z,73.42
2023-03-15T17:59:27.689Z,73.73
2023-03-15T18:01:01.626Z,74.21
2023-03-15T18:02:33.692Z,74.37
2023-03-15T18:04:10.702Z,74.28
2023-03-15T18:05:43.065Z,73.55
2023-03-15T18:07:14.893Z,73.61
2023-03-15T18:08:47.760Z,74.54
2023-03-15T18:10:21.033Z,75.14
2023-03-15T18:11:52.848Z,75.63
2023-03-15T18:13:26.477Z,76.07
2023-03-15T18:15:00.409Z,75.70
2023-03-15T18:16:32.492Z,75.57
2023-03-15T18:18:06.403Z,75.62
2023-03-15T18:19:38.382Z,75.72
2023-03-15T18:21:14.179Z,75.57
2023-03-15T18:22:45.953Z,75.21
2023-03-15T18:24:17.691Z,74.98
2023-03-15T18:25:49.464Z,74.93
2023-03-15T18:27:21.252Z,74.83
2023-03-15T18:28:52.912Z,74.57
2023-03-15T18:30:27.487Z,74.88
2023-03-15T18:31:59.167Z,75.29
2023-03-15T18:33:31.716Z,75.36
2023-03-15T18:35:04.616Z,75.28
2023-03-15T18:36:36.431Z,75.21
2023-03-15T18:38:08.163Z,75.18
2023-03-15T18:39:40.023Z,75.20
2023-03-15T18:41:20.329Z,75.48
2023-03-15T18:42:52.483Z,75.76
2023-03-15T18:44:24.189Z,76.19
2023-03-15T18:45:56.210Z,76.26
2023-03-15T18:47:28.009Z,75.43
2023-03-15T18:48:59.688Z,75.92
2023-03-15T18:50:32.129Z,76.20
2023-03-15T18:52:04.164Z,76.84
2023-03-15T18:53:35.882Z,76.46
2023-03-15T18:55:09.396Z,76.59
2023-03-15T18:56:43.101Z,76.39
2023-03-15T18:58:15.640Z,75.87
2023-03-15T18:59:47.725Z,76.07
2023-03-15T19:01:24.695Z,76.34
2023-03-15T19:03:01.425Z,76.57
2023-03-15T19:04:33.388Z,76.45
2023-03-15T19:06:06.392Z,76.01
2023-03-15T19:07:39.364Z,76.44
2023-03-15T19:09:11.298Z,76.38
2023-03-15T19:10:44.567Z,76.60
2023-03-15T19:12:16.341Z,76.89
2023-03-15T19:13:51.159Z,77.30
2023-03-15T19:15:23.576Z,77.25
2023-03-15T19:16:55.726Z,77.58
2023-03-15T19:18:27.978Z,77.64
2023-03-15T19:19:59.680Z,78.24
2023-03-15T19:21:31.428Z,78.42
2023-03-15T19:23:03.428Z,78.55
2023-03-15T19:24:36.357Z,78.58
2023-03-15T19:26:09.009Z,78.84
2023-03-15T19:27:44.525Z,78.13
2023-03-15T19:29:16.271Z,78.01
2023-03-15T19:30:49.234Z,78.02
2023-03-15T19:32:21.183Z,77.87
2023-03-15T19:33:53.675Z,78.12
2023-03-15T19:35:26.768Z,78.27
2023-03-15T19:36:58.901Z,78.22
2023-03-15T19:38:30.781Z,78.20
2023-03-15T19:40:03.863Z,78.43
2023-03-15T19:41:35.668Z,78.84
2023-03-15T19:43:07.461Z,78.74
2023-03-15T19:44:39.284Z,79.88
2023-03-15T19:46:13.825Z,80.54
2023-03-15T19:47:45.999Z,80.63
2023-03-15T19:49:17.805Z,80.90
2023-03-15T19:50:49.601Z,80.33
2023-03-15T19:52:21.564Z,81.29
2023-03-15T19:53:53.577Z,81.44
2023-03-15T19:55:27.974Z,81.40
2023-03-15T19:57:01.595Z,81.13
2023-03-15T19:58:33.935Z,81.37
2023-03-15T20:00:11.030Z,81.15
2023-03-15T20:01:42.985Z,81.36
2023-03-15T20:03:14.814Z,81.08
2023-03-15T20:04:46.586Z,80.57
2023-03-15T20:06:18.492Z,80.67
2023-03-15T20:07:54.284Z,80.92
2023-03-15T20:09:26.209Z,80.77
2023-03-15T20:11:04.136Z,80.79
2023-03-15T20:12:42.536Z,80.99
2023-03-15T20:14:15.580Z,81.50
2023-03-15T20:15:47.289Z,81.44
2023-03-15T20:17:20.637Z,81.55
2023-03-15T20:18:53.647Z,80.77
2023-03-15T20:20:25.608Z,81.22
2023-03-15T20:21:58.075Z,81.45
2023-03-15T20:23:30.517Z,81.19
2023-03-15T20:25:02.279Z,81.48
2023-03-15T20:26:34.073Z,81.39
2023-03-15T20:28:06.069Z,82.00
2023-03-15T20:29:37.968Z,81.46
2023-03-15T20:31:17.922Z,82.42
2023-03-15T20:32:49.820Z,82.46
2023-03-15T20:34:22.131Z,82.86
2023-03-15T20:35:53.874Z,82.79
2023-03-15T20:37:28.578Z,83.04
2023-03-15T20:39:00.378Z,83.32
2023-03-15T20:40:34.590Z,84.02